Adams Corners, New York
Current Conditions -  °F | °C
As of 6:45 AM on Monday 26 Jan 2015 (Local Time) from KSWF Reporting Station
Overcast Overcast  
Wind Chill:   Ceiling: 5000
Heat Index: 16°   Visibility: 20mi
Dew Point:   Wind: 12mph
Humidity: 58%   Direction: 70°ENE
Pressure: 30.03"   Gusts: NA
Location:  41.3969°N, 73.8382°W
Report Text: KSWF 261145Z 07010KT 20SM OVC050 M09/M16 A3003
Loading
Personal Weather Stations






























Interactive Weather Map New forecast layout! Learn more

10-Day Weather Forecast

Advertisements
Track Severe Weather on mobile